Time;durP1;ratioP1;P1;durP2;ratioP2;P2;SDS_P1;SDS_P2;PMS_P1;PMS_P2;Temp;Humidity;BMP_temperature;BMP_pressure;BME280_temperature;BME280_humidity;BME280_pressure;Samples;Min_cycle;Max_cycle;Signal;HPM_P1;HPM_P2
2022/05/20 00:00:35;;;;;;;7.60;5.65;;;13.50;99.90;;;;;;5036228;28;20487;-83
2022/05/20 00:03:01;;;;;;;7.82;5.90;;;13.50;99.90;;;;;;5053457;28;20071;-85
2022/05/20 00:05:27;;;;;;;9.98;5.90;;;13.50;99.90;;;;;;5052616;28;20040;-83
2022/05/20 00:07:56;;;;;;;8.05;5.78;;;13.50;99.90;;;;;;5053096;28;20044;-83
2022/05/20 00:10:23;;;;;;;9.80;7.22;;;13.50;99.90;;;;;;5036231;28;20048;-83
2022/05/20 00:12:49;;;;;;;8.27;6.70;;;13.50;99.90;;;;;;5052901;28;20041;-83
2022/05/20 00:15:19;;;;;;;8.65;7.55;;;13.50;99.90;;;;;;5035580;28;20044;-83
2022/05/20 00:17:45;;;;;;;11.25;7.43;;;13.40;99.90;;;;;;5036393;28;20039;-84
2022/05/20 00:20:14;;;;;;;8.98;7.30;;;13.40;99.90;;;;;;5036188;28;20045;-83
2022/05/20 00:22:40;;;;;;;10.75;7.57;;;13.50;99.90;;;;;;5036000;28;20072;-83
2022/05/20 00:27:51;;;;;;;9.73;7.82;;;13.50;99.90;;;;;;5052630;28;20092;-84
2022/05/20 00:30:16;;;;;;;10.10;7.38;;;13.50;99.90;;;;;;5052474;28;20076;-84
2022/05/20 00:32:42;;;;;;;11.95;8.00;;;13.50;99.90;;;;;;5052680;28;20076;-84
2022/05/20 00:35:10;;;;;;;8.48;7.20;;;13.40;99.90;;;;;;5035506;28;20037;-83
2022/05/20 00:37:35;;;;;;;9.18;8.10;;;13.40;99.90;;;;;;5052294;28;20129;-83
2022/05/20 00:40:02;;;;;;;10.13;7.80;;;13.40;99.90;;;;;;5035774;28;20123;-82
2022/05/20 00:42:27;;;;;;;12.50;7.40;;;13.40;99.90;;;;;;5052183;28;20048;-83
2022/05/20 00:44:53;;;;;;;10.70;7.50;;;13.30;99.90;;;;;;5051570;28;20044;-83
2022/05/20 00:47:18;;;;;;;9.95;7.78;;;13.40;99.90;;;;;;5052250;28;20044;-83
2022/05/20 00:49:49;;;;;;;9.88;7.72;;;13.30;99.90;;;;;;5052148;28;20072;-82
2022/05/20 00:52:19;;;;;;;12.80;7.35;;;13.30;99.90;;;;;;5035657;28;20080;-83
2022/05/20 00:54:52;;;;;;;10.55;7.15;;;13.30;99.90;;;;;;5034749;28;20047;-83
2022/05/20 00:57:30;;;;;;;11.70;7.85;;;13.30;99.90;;;;;;5052075;28;20069;-83
2022/05/20 01:00:01;;;;;;;11.48;7.20;;;13.30;99.90;;;;;;5052077;28;20055;-83
2022/05/20 01:02:30;;;;;;;11.27;7.45;;;13.40;99.90;;;;;;5034990;28;20087;-83
2022/05/20 01:04:59;;;;;;;10.38;7.38;;;13.30;99.90;;;;;;5051170;28;20048;-83
2022/05/20 01:07:27;;;;;;;11.27;7.70;;;13.30;99.90;;;;;;5035239;28;20032;-83
2022/05/20 01:09:53;;;;;;;11.20;7.07;;;13.20;99.90;;;;;;5035238;28;20048;-83
2022/05/20 01:12:20;;;;;;;12.20;7.10;;;13.20;99.90;;;;;;5051774;28;20037;-83
2022/05/20 01:14:48;;;;;;;10.07;6.88;;;13.10;99.90;;;;;;5034497;28;20068;-82
2022/05/20 01:17:15;;;;;;;8.52;6.60;;;13.10;99.90;;;;;;5051788;28;20048;-82
2022/05/20 01:19:55;;;;;;;12.30;7.40;;;13.00;99.90;;;;;;5035263;28;20128;-83
2022/05/20 01:22:45;;;;;;;13.30;7.43;;;12.90;99.90;;;;;;5051574;28;20083;-82
2022/05/20 01:25:10;;;;;;;8.90;7.45;;;13.00;99.90;;;;;;5034581;28;20132;-83
2022/05/20 01:27:42;;;;;;;12.65;8.00;;;12.90;99.90;;;;;;5035020;28;20124;-83
2022/05/20 01:30:09;;;;;;;10.82;6.82;;;12.90;99.90;;;;;;5051434;28;20066;-82
2022/05/20 01:32:35;;;;;;;8.75;6.80;;;12.90;99.90;;;;;;5051487;28;20043;-83
2022/05/20 01:35:02;;;;;;;11.02;7.55;;;12.90;99.90;;;;;;5050722;28;20053;-83
2022/05/20 01:37:28;;;;;;;9.40;7.05;;;13.00;99.90;;;;;;5034958;28;20437;-83
2022/05/20 01:39:53;;;;;;;11.80;8.40;;;12.90;99.90;;;;;;5051315;28;20045;-83
2022/05/20 01:42:36;;;;;;;10.77;7.60;;;13.00;99.90;;;;;;5051312;28;20036;-83
2022/05/20 01:45:09;;;;;;;13.38;8.27;;;13.00;99.90;;;;;;5050515;28;20079;-82
2022/05/20 01:47:47;;;;;;;9.10;7.28;;;13.00;99.90;;;;;;5034657;28;20045;-83
2022/05/20 01:50:25;;;;;;;8.90;7.63;;;13.00;99.90;;;;;;5051154;28;20124;-83
2022/05/20 01:53:05;;;;;;;13.52;8.65;;;13.00;99.90;;;;;;5049656;28;20499;-83
2022/05/20 01:55:39;;;;;;;9.00;7.38;;;13.10;99.90;;;;;;5033717;28;20088;-83
2022/05/20 01:58:17;;;;;;;13.88;7.82;;;13.10;99.90;;;;;;5034542;28;20045;-83
2022/05/20 02:00:46;;;;;;;11.00;8.00;;;13.10;99.90;;;;;;5050655;28;20041;-83
2022/05/20 02:03:46;;;;;;;11.98;7.53;;;13.10;99.90;;;;;;5051285;28;20402;-83
2022/05/20 02:06:29;;;;;;;11.10;8.18;;;13.10;99.90;;;;;;5034479;28;20406;-83
2022/05/20 02:09:02;;;;;;;10.00;7.97;;;13.10;99.90;;;;;;5034363;28;20503;-83
2022/05/20 02:11:39;;;;;;;11.48;8.63;;;13.10;99.90;;;;;;5050832;28;20045;-83
2022/05/20 02:14:15;;;;;;;11.30;8.65;;;13.10;99.90;;;;;;5049370;28;20102;-83
2022/05/20 02:16:49;;;;;;;13.15;9.25;;;13.10;99.90;;;;;;5034027;28;20043;-84
2022/05/20 02:19:26;;;;;;;11.70;8.57;;;13.00;99.90;;;;;;5050718;28;20041;-83
2022/05/20 02:21:55;;;;;;;16.27;9.20;;;13.00;99.90;;;;;;5050489;28;20067;-83
2022/05/20 02:24:26;;;;;;;10.57;8.30;;;13.00;99.90;;;;;;5049978;28;20406;-83
2022/05/20 02:26:56;;;;;;;11.93;8.70;;;13.00;99.90;;;;;;5050490;28;20045;-83
2022/05/20 02:29:58;;;;;;;13.30;9.52;;;12.90;99.90;;;;;;5050440;28;20040;-83
2022/05/20 02:32:31;;;;;;;13.52;9.40;;;12.90;99.90;;;;;;4998925;28;20572;-84
2022/05/20 02:34:57;;;;;;;13.52;8.77;;;12.80;99.90;;;;;;5033212;28;20049;-83
2022/05/20 02:37:27;;;;;;;11.57;8.48;;;12.70;99.90;;;;;;5033738;28;20033;-83
2022/05/20 02:39:53;;;;;;;9.98;8.68;;;12.50;99.90;;;;;;5050244;28;20045;-83
2022/05/20 02:42:19;;;;;;;10.07;7.88;;;12.50;99.90;;;;;;5050446;28;20041;-82
2022/05/20 02:44:45;;;;;;;14.98;9.30;;;12.60;99.90;;;;;;5033154;28;20033;-82
2022/05/20 02:47:11;;;;;;;11.93;9.48;;;12.50;99.90;;;;;;5049807;28;20142;-82
2022/05/20 02:49:36;;;;;;;12.75;9.45;;;12.50;99.90;;;;;;5048716;28;20037;-83
2022/05/20 02:52:03;;;;;;;10.63;9.40;;;12.60;99.90;;;;;;5033887;28;20044;-83
2022/05/20 02:54:29;;;;;;;13.85;10.05;;;12.50;99.90;;;;;;5049364;28;20043;-82
2022/05/20 02:56:54;;;;;;;12.98;9.10;;;12.50;99.90;;;;;;5066038;28;20037;-83
2022/05/20 03:04:48;;;;;;;;;;;12.30;99.90;;;;;;5048956;28;20048;-83
2022/05/20 03:07:14;;;;;;;11.05;8.82;;;12.30;99.90;;;;;;5049171;28;19916;-82
2022/05/20 03:09:39;;;;;;;11.82;9.13;;;12.20;99.90;;;;;;5049089;28;20506;-81
2022/05/20 03:12:06;;;;;;;10.65;9.40;;;12.20;99.90;;;;;;5049811;28;20029;-82
2022/05/20 03:14:32;;;;;;;14.48;10.48;;;12.20;99.90;;;;;;5049173;28;20083;-82
2022/05/20 03:17:01;;;;;;;11.25;9.27;;;12.20;99.90;;;;;;5062473;28;20037;-82
2022/05/20 03:19:31;;;;;;;13.57;9.18;;;12.10;99.90;;;;;;5049303;28;20077;-83
2022/05/20 03:22:01;;;;;;;10.35;9.25;;;12.10;99.90;;;;;;5049822;28;20196;-83
2022/05/20 03:24:27;;;;;;;10.98;8.32;;;12.10;99.90;;;;;;5033743;28;20064;-84
2022/05/20 03:26:53;;;;;;;9.60;8.23;;;12.10;99.90;;;;;;5036899;28;20095;-83
2022/05/20 03:29:18;;;;;;;9.63;8.35;;;12.10;99.90;;;;;;5053397;28;20048;-83
2022/05/20 03:31:44;;;;;;;10.98;9.20;;;12.10;99.90;;;;;;5053441;28;20564;-83
2022/05/20 03:34:10;;;;;;;12.30;10.68;;;12.10;99.90;;;;;;5036138;28;20044;-82
2022/05/20 03:36:38;;;;;;;12.45;8.98;;;12.10;99.90;;;;;;5053388;28;20033;-83
2022/05/20 03:39:06;;;;;;;9.75;8.43;;;12.00;99.90;;;;;;5036701;28;20044;-82
2022/05/20 03:41:32;;;;;;;10.45;8.15;;;11.90;99.90;;;;;;5053462;28;20044;-82
2022/05/20 03:43:58;;;;;;;12.20;9.25;;;11.90;99.90;;;;;;5053053;28;20049;-82
2022/05/20 03:46:24;;;;;;;11.85;9.32;;;11.80;99.90;;;;;;5053449;28;20482;-84
2022/05/20 03:48:49;;;;;;;11.98;10.32;;;11.80;99.90;;;;;;5069974;28;20106;-83
2022/05/20 03:51:15;;;;;;;14.63;11.02;;;11.70;99.90;;;;;;5069993;28;20507;-82
2022/05/20 03:53:41;;;;;;;14.07;11.63;;;11.70;99.90;;;;;;5069834;28;20525;-82
2022/05/20 03:56:07;;;;;;;13.63;11.52;;;11.70;99.90;;;;;;5052870;28;20037;-82
2022/05/20 03:58:33;;;;;;;17.90;11.80;;;11.70;99.90;;;;;;5036866;28;20041;-82
2022/05/20 04:03:45;;;;;;;14.63;12.45;;;11.80;99.90;;;;;;5052423;28;20049;-81
2022/05/20 04:06:11;;;;;;;12.02;10.10;;;11.80;99.90;;;;;;5069788;28;20051;-82
2022/05/20 04:08:39;;;;;;;12.90;11.50;;;11.90;99.90;;;;;;5036903;28;20055;-82
2022/05/20 04:11:06;;;;;;;17.92;12.77;;;11.90;99.90;;;;;;5052969;28;20506;-82
2022/05/20 04:13:32;;;;;;;15.27;11.80;;;12.00;99.90;;;;;;5053051;28;20044;-82
2022/05/20 04:15:58;;;;;;;14.65;11.90;;;12.00;99.90;;;;;;5035815;28;20085;-82
2022/05/20 04:18:23;;;;;;;15.15;11.35;;;12.00;99.90;;;;;;5069630;28;20033;-82
2022/05/20 04:20:50;;;;;;;13.93;12.30;;;12.00;99.90;;;;;;5052748;28;20067;-82
2022/05/20 04:23:17;;;;;;;18.48;14.00;;;12.10;99.90;;;;;;5052785;28;20045;-82
2022/05/20 04:25:44;;;;;;;16.67;13.27;;;12.10;99.90;;;;;;5052107;28;20041;-83
2022/05/20 04:28:10;;;;;;;15.95;13.77;;;12.10;99.90;;;;;;5052791;28;20052;-83
2022/05/20 04:30:36;;;;;;;16.60;13.20;;;12.10;99.90;;;;;;5052640;28;20045;-83
2022/05/20 04:33:02;;;;;;;17.73;13.80;;;12.10;99.90;;;;;;5069624;28;20521;-83
2022/05/20 04:35:28;;;;;;;16.80;13.20;;;12.10;99.90;;;;;;5034876;28;20091;-83
2022/05/20 04:37:53;;;;;;;18.77;14.18;;;12.20;99.90;;;;;;5052197;28;20029;-83
2022/05/20 04:40:19;;;;;;;18.52;13.93;;;12.20;99.90;;;;;;5069276;28;20071;-83
2022/05/20 04:48:33;;;;;;;16.73;13.47;;;12.40;99.90;;;;;;5014730;28;20045;-84
2022/05/20 04:50:58;;;;;;;20.23;14.30;;;12.40;99.90;;;;;;5014679;28;20041;-83
2022/05/20 04:56:08;;;;;;;16.63;13.65;;;12.50;99.90;;;;;;5052213;28;20041;-83
2022/05/20 04:58:34;;;;;;;15.30;13.32;;;12.50;99.90;;;;;;5052413;28;20043;-83
2022/05/20 05:00:59;;;;;;;14.70;12.40;;;12.60;99.90;;;;;;5051899;28;20041;-82
2022/05/20 05:03:25;;;;;;;15.63;13.02;;;12.60;99.90;;;;;;5068730;28;20041;-83
2022/05/20 05:05:51;;;;;;;15.40;13.23;;;12.70;99.90;;;;;;5051372;28;20053;-82
2022/05/20 05:08:17;;;;;;;14.05;12.55;;;12.80;99.90;;;;;;5068734;28;20041;-83
2022/05/20 05:10:44;;;;;;;14.18;12.85;;;12.90;99.90;;;;;;5068533;28;20071;-82
2022/05/20 05:13:11;;;;;;;14.73;12.02;;;13.00;99.90;;;;;;5051883;28;20487;-82
2022/05/20 05:15:37;;;;;;;11.77;10.57;;;13.10;99.90;;;;;;5067986;28;20037;-83
2022/05/20 05:18:09;;;;;;;13.15;11.85;;;13.20;99.90;;;;;;5051770;28;20045;-83
2022/05/20 05:20:39;;;;;;;12.93;11.27;;;13.20;99.90;;;;;;5051742;28;20045;-82
2022/05/20 05:23:05;;;;;;;12.98;11.75;;;13.30;99.90;;;;;;5035334;28;20119;-83
2022/05/20 05:25:33;;;;;;;12.75;11.40;;;13.40;99.90;;;;;;5034643;28;20049;-83
2022/05/20 05:27:58;;;;;;;13.35;11.95;;;13.50;99.90;;;;;;5051561;28;20047;-83
2022/05/20 05:30:24;;;;;;;13.50;12.00;;;13.60;99.90;;;;;;5051460;28;20049;-82
2022/05/20 05:32:50;;;;;;;13.60;12.10;;;13.70;99.90;;;;;;5034730;28;20152;-83
2022/05/20 05:35:19;;;;;;;15.07;11.80;;;13.70;99.90;;;;;;5050801;28;20041;-84
2022/05/20 05:37:45;;;;;;;12.38;10.98;;;13.90;99.90;;;;;;5050934;28;20517;-83
2022/05/20 05:40:15;;;;;;;13.68;12.15;;;13.90;99.90;;;;;;5051238;28;20076;-84
2022/05/20 05:42:43;;;;;;;15.27;12.20;;;14.00;99.90;;;;;;5067964;28;20051;-83
2022/05/20 05:45:10;;;;;;;13.52;12.18;;;14.10;99.90;;;;;;5050564;28;20056;-83
2022/05/20 05:47:36;;;;;;;13.07;11.68;;;14.10;99.90;;;;;;5066980;28;20087;-82
2022/05/20 05:50:02;;;;;;;14.90;11.55;;;14.20;99.90;;;;;;5050869;28;20045;-83
2022/05/20 05:52:28;;;;;;;13.30;11.50;;;14.20;99.90;;;;;;5051033;28;20037;-83
2022/05/20 05:54:53;;;;;;;13.50;11.50;;;14.30;99.90;;;;;;5067017;28;20140;-83
2022/05/20 05:57:19;;;;;;;14.35;11.93;;;14.30;99.90;;;;;;5067672;28;20034;-83
2022/05/20 05:59:44;;;;;;;14.07;11.43;;;14.40;99.90;;;;;;5051160;28;20396;-83
2022/05/20 06:02:10;;;;;;;13.13;11.73;;;14.50;99.90;;;;;;5050766;28;20049;-83
2022/05/20 06:04:36;;;;;;;14.07;11.90;;;14.60;99.90;;;;;;5050204;28;20041;-83
2022/05/20 06:07:03;;;;;;;15.13;12.45;;;14.70;99.90;;;;;;5050860;28;20044;-83
2022/05/20 06:09:29;;;;;;;14.65;11.70;;;14.80;99.90;;;;;;5067359;28;20048;-83
2022/05/20 06:11:54;;;;;;;14.80;11.30;;;14.80;99.90;;;;;;5050891;28;20044;-82
2022/05/20 06:14:20;;;;;;;12.60;11.25;;;14.90;99.90;;;;;;5050098;28;20120;-82
2022/05/20 06:16:45;;;;;;;14.02;11.18;;;15.00;99.90;;;;;;5050607;28;20469;-81
2022/05/20 06:19:11;;;;;;;12.65;10.30;;;14.90;99.90;;;;;;5050692;28;20521;-83
2022/05/20 06:21:40;;;;;;;13.48;10.98;;;14.70;99.90;;;;;;5050559;28;20090;-82
2022/05/20 06:24:06;;;;;;;12.88;10.10;;;14.70;99.90;;;;;;5066485;28;20115;-82
2022/05/20 06:26:32;;;;;;;14.85;9.95;;;15.00;99.90;;;;;;5067137;28;20127;-82
2022/05/20 06:28:57;;;;;;;14.07;10.77;;;15.20;99.90;;;;;;5050385;28;20128;-82
2022/05/20 06:31:23;;;;;;;14.13;9.80;;;15.30;99.90;;;;;;5050532;28;20403;-82
2022/05/20 06:33:49;;;;;;;12.20;9.57;;;15.40;99.90;;;;;;5049960;28;20044;-82
2022/05/20 06:41:42;;;;;;;;;;;15.60;99.90;;;;;;5049015;28;20052;-83
2022/05/20 06:44:08;;;;;;;10.35;8.25;;;15.70;99.90;;;;;;5030947;28;19917;-83
2022/05/20 06:46:34;;;;;;;12.73;8.90;;;15.70;99.90;;;;;;5034598;28;20481;-82
2022/05/20 06:49:00;;;;;;;13.63;9.32;;;15.80;99.90;;;;;;5049842;28;20095;-81
2022/05/20 06:51:29;;;;;;;13.63;8.23;;;15.90;99.90;;;;;;5049489;28;20713;-81
2022/05/20 06:53:57;;;;;;;13.27;8.38;;;15.90;99.90;;;;;;5048539;28;20032;-82
2022/05/20 06:56:28;;;;;;;10.77;7.78;;;15.90;99.90;;;;;;5050232;28;20041;-82
2022/05/20 06:58:54;;;;;;;11.27;7.30;;;15.90;99.90;;;;;;5049753;28;20510;-83
2022/05/20 07:01:19;;;;;;;10.65;7.85;;;15.70;99.90;;;;;;5049822;28;20036;-82
2022/05/20 07:03:45;;;;;;;11.77;7.80;;;15.50;99.90;;;;;;5049727;28;20032;-83
2022/05/20 07:06:12;;;;;;;15.52;8.20;;;15.50;99.90;;;;;;5049759;28;20045;-82
2022/05/20 07:08:39;;;;;;;10.18;7.60;;;15.60;99.90;;;;;;5049501;28;20033;-83
2022/05/20 07:11:05;;;;;;;12.02;6.90;;;15.70;99.90;;;;;;5048277;28;20045;-82
2022/05/20 07:13:34;;;;;;;12.13;7.10;;;15.90;99.90;;;;;;5045407;28;20182;-81
2022/05/20 07:16:00;;;;;;;11.20;7.30;;;16.10;99.90;;;;;;5048834;28;20603;-81
2022/05/20 07:18:27;;;;;;;11.13;7.53;;;16.30;99.90;;;;;;5032997;28;20029;-83
2022/05/20 07:20:53;;;;;;;11.98;7.22;;;16.50;99.90;;;;;;5046819;28;20040;-82
2022/05/20 07:23:18;;;;;;;10.52;6.85;;;16.70;99.90;;;;;;5049422;28;20044;-81
2022/05/20 07:25:44;;;;;;;11.07;6.65;;;16.90;99.90;;;;;;5048863;28;20037;-83
2022/05/20 07:28:10;;;;;;;10.07;6.90;;;17.00;99.90;;;;;;5049099;28;20478;-82
2022/05/20 07:30:35;;;;;;;13.48;7.05;;;17.10;99.90;;;;;;5049109;28;20090;-81
2022/05/20 07:33:01;;;;;;;11.27;6.78;;;17.30;99.90;;;;;;5049775;28;20045;-82
2022/05/20 07:35:27;;;;;;;11.20;6.80;;;17.20;99.90;;;;;;5049053;28;20060;-81
2022/05/20 07:37:53;;;;;;;9.90;7.53;;;17.20;99.90;;;;;;5049442;28;20035;-82
2022/05/20 07:40:20;;;;;;;11.93;7.15;;;17.00;99.90;;;;;;5049424;28;20574;-82
2022/05/20 07:42:46;;;;;;;12.10;7.57;;;16.80;99.90;;;;;;5033139;28;20036;-82
2022/05/20 07:45:13;;;;;;;11.70;6.95;;;16.60;99.90;;;;;;5032232;28;20048;-81
2022/05/20 07:47:38;;;;;;;11.68;6.45;;;16.50;99.90;;;;;;5034328;28;20037;-81
2022/05/20 07:50:05;;;;;;;9.40;6.55;;;16.70;99.90;;;;;;5049892;28;20098;-81
2022/05/20 07:55:22;;;;;;;9.95;5.10;;;16.70;99.90;;;;;;5028756;28;20042;-82
2022/05/20 07:57:48;;;;;;;9.63;4.60;;;16.90;99.90;;;;;;5045916;28;20141;-82
2022/05/20 08:00:14;;;;;;;9.18;4.32;;;17.10;99.90;;;;;;5049279;28;20079;-81
2022/05/20 08:02:42;;;;;;;9.13;4.68;;;17.40;99.90;;;;;;5049698;28;20060;-81
2022/05/20 08:05:10;;;;;;;9.73;4.90;;;17.50;99.90;;;;;;5032181;28;20056;-82
2022/05/20 08:07:41;;;;;;;9.45;4.35;;;17.60;99.90;;;;;;5032894;28;20123;-82
2022/05/20 08:10:29;;;;;;;9.02;4.88;;;17.90;99.90;;;;;;5049528;28;20073;-82
2022/05/20 08:12:56;;;;;;;7.80;4.70;;;18.20;99.90;;;;;;5052738;28;20119;-80
2022/05/20 08:15:23;;;;;;;7.00;3.90;;;18.30;99.90;;;;;;5035320;28;20037;-81
2022/05/20 08:17:49;;;;;;;6.57;4.05;;;18.20;99.90;;;;;;5052441;28;20040;-83
2022/05/20 08:20:25;;;;;;;10.82;4.88;;;18.30;99.90;;;;;;5053958;28;20079;-82
2022/05/20 08:22:53;;;;;;;7.85;4.30;;;18.30;99.90;;;;;;5052824;28;20052;-82
2022/05/20 08:25:19;;;;;;;8.40;3.97;;;18.50;99.90;;;;;;5052439;28;20068;-82
2022/05/20 08:27:45;;;;;;;7.53;3.60;;;18.70;99.90;;;;;;5052902;28;20040;-82
2022/05/20 08:30:14;;;;;;;7.10;3.80;;;18.90;99.90;;;;;;5052705;28;20466;-82
2022/05/20 08:32:40;;;;;;;8.52;3.33;;;18.70;99.90;;;;;;5036136;28;20091;-83
2022/05/20 08:35:07;;;;;;;6.75;3.00;;;18.60;99.90;;;;;;5051900;28;20084;-85
2022/05/20 08:37:37;;;;;;;8.32;3.17;;;18.40;99.90;;;;;;5036205;28;20526;-82
2022/05/20 08:40:04;;;;;;;6.75;3.10;;;18.30;99.90;;;;;;5052696;28;20136;-81
2022/05/20 08:42:32;;;;;;;8.90;3.97;;;18.50;99.90;;;;;;5036199;28;20643;-81
2022/05/20 08:45:01;;;;;;;6.35;3.90;;;18.70;99.90;;;;;;5051856;28;20048;-82
2022/05/20 08:47:46;;;;;;;7.65;4.15;;;18.90;99.90;;;;;;5052499;28;20512;-81
2022/05/20 08:50:30;;;;;;;6.90;3.92;;;18.90;99.90;;;;;;5052248;28;20119;-82
2022/05/20 08:52:57;;;;;;;7.13;4.28;;;18.80;99.90;;;;;;5053029;28;20036;-81
2022/05/20 08:55:23;;;;;;;7.45;3.47;;;19.10;99.90;;;;;;5051692;28;20036;-81
2022/05/20 08:57:58;;;;;;;8.95;3.90;;;19.30;99.90;;;;;;5052400;28;20041;-82
2022/05/20 09:00:24;;;;;;;6.80;3.58;;;19.50;99.90;;;;;;5052243;28;20051;-81
2022/05/20 09:02:50;;;;;;;6.82;3.63;;;19.50;99.90;;;;;;5052448;28;20062;-84
2022/05/20 09:05:33;;;;;;;9.38;3.75;;;19.50;99.90;;;;;;5068458;28;20040;-82
2022/05/20 09:08:21;;;;;;;6.53;3.60;;;19.20;99.90;;;;;;5052434;28;20119;-82
2022/05/20 09:10:53;;;;;;;6.53;3.95;;;19.20;99.90;;;;;;5035767;28;20552;-82
2022/05/20 09:16:29;;;;;;;8.65;3.97;;;19.20;99.90;;;;;;5052087;28;20037;-82
2022/05/20 09:19:14;;;;;;;7.60;3.92;;;19.10;99.90;;;;;;5035339;28;20033;-82
2022/05/20 09:21:43;;;;;;;6.93;3.53;;;19.10;99.90;;;;;;5051857;28;20037;-82
2022/05/20 09:24:20;;;;;;;7.88;4.10;;;19.10;99.90;;;;;;5050432;28;20483;-82
2022/05/20 09:26:50;;;;;;;6.60;3.80;;;19.20;99.90;;;;;;5035111;28;20418;-82
2022/05/20 09:29:45;;;;;;;7.70;4.10;;;19.20;99.90;;;;;;5051513;28;20128;-82
2022/05/20 09:32:25;;;;;;;8.45;4.38;;;19.30;99.90;;;;;;5047952;28;20059;-83
2022/05/20 09:35:23;;;;;;;6.28;4.55;;;19.10;99.90;;;;;;5051010;28;20048;-81
2022/05/20 09:37:50;;;;;;;7.63;4.72;;;19.20;99.90;;;;;;5051055;28;20097;-82
2022/05/20 09:40:19;;;;;;;7.00;4.57;;;19.20;99.90;;;;;;5051594;28;20084;-81
2022/05/20 09:43:04;;;;;;;8.68;5.10;;;19.20;99.90;;;;;;5052046;28;20037;-81
2022/05/20 09:45:36;;;;;;;8.15;4.63;;;19.40;99.90;;;;;;5067449;28;20518;-82
2022/05/20 09:48:02;;;;;;;7.07;3.85;;;19.50;99.90;;;;;;5034671;28;20119;-82
2022/05/20 09:50:38;;;;;;;6.63;3.80;;;19.40;99.90;;;;;;5051369;28;20621;-82
2022/05/20 09:53:26;;;;;;;4.78;3.03;;;19.50;99.90;;;;;;5034717;28;20041;-83
2022/05/20 09:56:12;;;;;;;4.45;2.47;;;19.50;99.90;;;;;;5050560;28;20044;-82
2022/05/20 09:58:39;;;;;;;5.25;2.90;;;19.50;99.90;;;;;;5051125;28;20045;-84
2022/05/20 10:01:10;;;;;;;4.97;3.25;;;19.60;99.90;;;;;;5051205;28;20044;-81
2022/05/20 10:03:46;;;;;;;4.82;2.92;;;19.40;99.90;;;;;;5034834;28;20041;-82
2022/05/20 10:06:24;;;;;;;4.40;2.78;;;19.40;99.90;;;;;;5051319;28;20394;-82
2022/05/20 10:09:22;;;;;;;6.32;4.07;;;19.50;99.90;;;;;;5051253;28;20133;-82
2022/05/20 10:12:00;;;;;;;6.18;3.90;;;19.50;99.90;;;;;;5034338;28;20048;-81
2022/05/20 10:14:45;;;;;;;8.27;5.15;;;19.60;99.90;;;;;;5050403;28;20048;-81
2022/05/20 10:17:24;;;;;;;7.32;5.20;;;19.60;99.90;;;;;;5051219;28;20067;-83
2022/05/20 10:20:02;;;;;;;7.20;4.95;;;19.60;99.90;;;;;;5051273;28;20048;-82
2022/05/20 10:22:49;;;;;;;8.23;4.80;;;19.60;99.90;;;;;;5067696;28;20073;-82
2022/05/20 10:25:26;;;;;;;7.22;4.82;;;19.60;99.90;;;;;;5033808;28;20040;-81
2022/05/20 10:27:59;;;;;;;6.82;3.97;;;19.70;99.90;;;;;;5050772;28;20052;-82
2022/05/20 10:33:27;;;;;;;5.82;3.47;;;19.90;99.90;;;;;;5049914;28;20045;-81
2022/05/20 10:36:22;;;;;;;6.55;3.50;;;20.00;99.90;;;;;;5049833;28;20040;-83
2022/05/20 10:39:19;;;;;;;6.80;3.80;;;20.00;99.90;;;;;;5067462;28;20403;-82
2022/05/20 10:41:51;;;;;;;5.35;3.40;;;20.10;99.90;;;;;;5041362;28;20102;-82
2022/05/20 10:50:32;;;;;;;5.82;3.45;;;20.30;99.90;;;;;;5050358;28;20408;-81
2022/05/20 10:53:31;;;;;;;5.32;3.83;;;20.30;99.90;;;;;;5049734;28;20089;-82
2022/05/20 10:56:16;;;;;;;6.68;3.75;;;20.40;99.90;;;;;;5040982;28;20075;-82
2022/05/20 10:59:00;;;;;;;8.13;3.85;;;20.40;99.90;;;;;;5050315;28;20106;-83
2022/05/20 11:01:52;;;;;;;6.93;3.55;;;20.60;99.90;;;;;;5033585;28;20095;-82
2022/05/20 11:04:40;;;;;;;6.80;3.25;;;20.80;99.90;;;;;;5049573;28;20062;-81
2022/05/20 11:07:15;;;;;;;6.40;2.70;;;20.80;99.90;;;;;;5050262;28;20082;-81
2022/05/20 11:10:08;;;;;;;5.20;2.80;;;20.90;99.90;;;;;;5033796;28;20128;-82
2022/05/20 11:12:49;;;;;;;5.68;3.22;;;20.90;99.90;;;;;;5050324;28;20045;-81
2022/05/20 11:15:23;;;;;;;6.63;3.42;;;21.00;99.90;;;;;;5050372;28;20608;-83
2022/05/20 11:18:01;;;;;;;7.07;3.15;;;20.70;99.90;;;;;;5050485;28;20091;-83
2022/05/20 11:20:58;;;;;;;5.93;3.55;;;20.80;99.90;;;;;;5067071;28;20056;-81
2022/05/20 11:23:57;;;;;;;5.20;2.72;;;20.80;99.90;;;;;;5033365;28;20500;-82
2022/05/20 11:26:32;;;;;;;6.28;2.95;;;21.30;99.90;;;;;;5066149;28;20040;-80
2022/05/20 11:29:34;;;;;;;6.43;3.05;;;21.20;99.90;;;;;;5045590;28;20120;-81
2022/05/20 11:32:07;;;;;;;4.68;2.40;;;21.50;99.90;;;;;;5029894;28;20087;-82
2022/05/20 11:35:11;;;;;;;5.85;2.80;;;21.70;99.90;;;;;;5029799;28;20095;-82
2022/05/20 11:38:05;;;;;;;7.38;3.03;;;22.00;99.90;;;;;;5013889;28;20095;-82
2022/05/20 11:40:34;;;;;;;8.10;2.90;;;22.20;99.90;;;;;;5013480;28;20179;-82
2022/05/20 11:43:11;;;;;;;4.43;2.85;;;22.10;99.90;;;;;;5013630;28;20041;-81
2022/05/20 11:45:49;;;;;;;6.32;3.20;;;22.20;99.90;;;;;;5030982;28;20126;-82
2022/05/20 11:48:42;;;;;;;7.55;2.80;;;22.10;99.90;;;;;;5017751;28;20507;-83
2022/05/20 11:51:16;;;;;;;5.43;2.47;;;22.30;99.90;;;;;;5036045;28;20485;-85
2022/05/20 11:54:15;;;;;;;6.28;2.92;;;22.30;99.90;;;;;;5052013;28;20518;-83
2022/05/20 11:56:53;;;;;;;4.38;2.83;;;22.30;99.90;;;;;;5052531;28;20133;-81
2022/05/20 11:59:27;;;;;;;4.78;2.58;;;22.50;99.90;;;;;;5049819;28;20049;-84
2022/05/20 12:01:56;;;;;;;5.95;3.42;;;22.50;99.90;;;;;;5033141;28;20507;-83
2022/05/20 12:04:24;;;;;;;6.10;3.97;;;22.60;99.90;;;;;;5034863;28;20093;-82
2022/05/20 12:06:58;;;;;;;5.90;4.32;;;22.70;99.90;;;;;;5049334;28;20037;-83
2022/05/20 12:09:48;;;;;;;4.80;3.47;;;22.60;99.90;;;;;;5048850;28;20049;-82
2022/05/20 12:12:34;;;;;;;5.13;4.03;;;22.50;99.90;;;;;;5035891;28;20041;-84
2022/05/20 12:15:08;;;;;;;6.50;4.55;;;22.50;99.90;;;;;;5040551;28;20086;-81
2022/05/20 12:17:46;;;;;;;8.57;4.88;;;22.50;99.90;;;;;;5034503;28;20032;-81
2022/05/20 12:26:00;;;;;;;6.28;3.88;;;22.30;99.90;;;;;;5047157;28;20051;-82
2022/05/20 12:28:25;;;;;;;6.30;3.83;;;22.20;99.90;;;;;;5036197;28;20045;-84
2022/05/20 12:31:18;;;;;;;4.85;3.13;;;22.20;99.90;;;;;;5035419;28;20052;-83
2022/05/20 12:33:59;;;;;;;5.18;2.83;;;22.20;99.90;;;;;;5052639;28;20036;-84
2022/05/20 12:36:27;;;;;;;4.40;2.47;;;22.30;99.90;;;;;;5036278;28;20100;-84
2022/05/20 12:39:15;;;;;;;4.70;2.85;;;22.40;99.90;;;;;;5052819;28;20033;-81
2022/05/20 12:41:49;;;;;;;3.97;3.10;;;22.60;99.90;;;;;;5035393;28;20045;-83
2022/05/20 12:44:21;;;;;;;6.70;3.60;;;22.80;99.90;;;;;;5052025;28;20128;-84
2022/05/20 12:47:05;;;;;;;4.57;4.15;;;22.80;99.90;;;;;;5052928;28;20151;-82
2022/05/20 12:49:42;;;;;;;5.82;3.75;;;22.70;99.90;;;;;;5052782;28;20041;-84
2022/05/20 12:52:22;;;;;;;5.72;3.53;;;22.40;99.90;;;;;;5052625;28;20091;-82
2022/05/20 12:54:54;;;;;;;5.07;3.20;;;22.40;99.90;;;;;;5035053;28;20055;-83
2022/05/20 12:57:25;;;;;;;3.40;2.25;;;22.50;99.90;;;;;;5051764;28;20116;-84
2022/05/20 13:00:01;;;;;;;3.35;2.20;;;22.50;99.90;;;;;;5035893;28;20533;-81
2022/05/20 13:02:34;;;;;;;4.53;2.80;;;22.40;99.90;;;;;;5052751;28;20089;-81
2022/05/20 13:05:32;;;;;;;3.88;2.60;;;22.40;99.90;;;;;;5051845;28;20530;-83
2022/05/20 13:08:00;;;;;;;5.35;3.50;;;22.30;99.90;;;;;;5052662;28;20518;-82
2022/05/20 13:10:35;;;;;;;5.68;4.20;;;22.10;99.90;;;;;;5051127;28;20123;-80
2022/05/20 13:13:05;;;;;;;7.97;5.05;;;21.80;99.90;;;;;;5051906;28;20679;-83
2022/05/20 13:15:31;;;;;;;8.75;5.20;;;21.60;99.90;;;;;;5052129;28;20391;-83
2022/05/20 13:18:09;;;;;;;6.40;5.10;;;21.50;99.90;;;;;;5051693;28;20090;-84
2022/05/20 13:20:36;;;;;;;6.50;5.10;;;21.30;99.90;;;;;;5068463;28;20525;-84
2022/05/20 13:23:05;;;;;;;6.15;4.65;;;21.10;99.90;;;;;;5035104;28;20120;-84
2022/05/20 13:25:31;;;;;;;6.72;4.88;;;20.90;99.90;;;;;;5034339;28;20131;-84
2022/05/20 13:27:58;;;;;;;7.35;4.60;;;20.90;99.90;;;;;;5051815;28;20060;-82
2022/05/20 13:30:27;;;;;;;6.03;4.57;;;20.80;99.90;;;;;;5051401;28;20075;-83
2022/05/20 13:33:00;;;;;;;5.70;4.63;;;20.70;99.90;;;;;;5043521;28;20175;-83
2022/05/20 13:35:26;;;;;;;6.90;4.88;;;20.60;99.90;;;;;;5047555;28;20491;-82
2022/05/20 13:37:54;;;;;;;6.28;4.30;;;20.50;99.90;;;;;;5033528;28;20048;-83
2022/05/20 13:40:21;;;;;;;5.72;4.47;;;20.40;99.90;;;;;;5058833;28;20545;-81
2022/05/20 13:42:55;;;;;;;5.43;4.28;;;20.30;99.90;;;;;;5051140;28;20568;-83
2022/05/20 13:51:27;;;;;;;8.60;6.43;;;19.90;99.90;;;;;;5050751;28;20056;-84
2022/05/20 13:53:58;;;;;;;8.52;5.80;;;19.80;99.90;;;;;;5032966;28;20407;-83